LiveATC.Net - Listen to live air traffic control over the Internet!


ICAO: SAEZ  IATA: EZE   Airport: Ministro Pistarini International Airport
City: Buenos Aires
Country: Argentina   Continent: South America
SAEZ METAR Weather: SAEZ 240900Z 06006KT CAVOK 09/08 Q1023 NOSIG
SAEZ Flight Activity (FlightAware)

SAEZ ATIS
Feed Status: DOWN
Last heard on: 2019-07-02 16:02:06 (52 days 18 hours 24 minutes ago)
SAEZ ATIS Audio Archives
FacilityFrequency
Ezeiza ATIS127.800
NOTE: All operating frequencies were removed due to repeated unauthorized inappropriate use

NOTICE

Unauthorized use prohibited. See LiveATC.net Terms of Service


Airport/ARTCC Code
Frequency Search
(e.g., 124.400, 128.75)
Site-wide search
 


Browse LiveATC Feeds
Top 50 LiveATC Feeds
LiveATC Feed Map
Bad Weather Areas

LiveATC FAQ
Offer LiveATC feed
Contact LiveATC.net
Press Inquiries

LiveATC on iPhone
LiveATC on Android

Windows Phone
Windows 8/10

LiveATC Mobile
(Mobile browser)

ATC Audio Archives
Interesting Recordings

LiveATC Forums


Home Page
About LiveATC.net
Make a Donation
Terms of Use
Privacy Policy

Canadian Air Freqs

AIRMETs/SIGMETs

FAA Airport Status
Nat'l Airspace Status
Arrival Demand Charts


Server Software By:
Icecast.org
Liquidsoap